createdAt,value
2018-10-16T00:01:19.329Z,54.77
2018-10-16T00:03:46.631Z,54.04
2018-10-16T00:06:13.882Z,53.24
2018-10-16T00:08:41.849Z,52.79
2018-10-16T00:11:09.121Z,52.92
2018-10-16T00:13:36.464Z,53.47
2018-10-16T00:16:03.701Z,54.06
2018-10-16T00:18:30.909Z,53.57
2018-10-16T00:20:58.153Z,53.68
2018-10-16T00:23:25.459Z,53.77
2018-10-16T00:25:52.726Z,53.99
2018-10-16T00:28:20.149Z,54.19
2018-10-16T00:30:47.424Z,53.69
2018-10-16T00:33:14.758Z,54.34
2018-10-16T00:35:42.019Z,54.09
2018-10-16T00:38:09.936Z,54.76
2018-10-16T00:40:37.436Z,53.93
2018-10-16T00:43:04.711Z,53.67
2018-10-16T00:45:32.016Z,54.63
2018-10-16T00:47:59.247Z,55.38
2018-10-16T00:50:27.343Z,55.07
2018-10-16T00:52:54.700Z,55.11
2018-10-16T00:55:22.266Z,55.40
2018-10-16T00:57:49.598Z,54.68
2018-10-16T01:00:17.040Z,55.21
2018-10-16T01:02:44.304Z,55.23
2018-10-16T01:05:12.517Z,55.74
2018-10-16T01:07:40.672Z,55.02
2018-10-16T01:10:08.973Z,55.24
2018-10-16T01:12:37.088Z,55.06
2018-10-16T01:15:04.699Z,55.41
2018-10-16T01:17:31.946Z,54.67
2018-10-16T01:19:59.216Z,55.67
2018-10-16T01:22:26.609Z,55.67
2018-10-16T01:24:53.866Z,55.01
2018-10-16T01:27:21.252Z,55.93
2018-10-16T01:29:48.516Z,55.36
2018-10-16T01:32:15.953Z,55.66
2018-10-16T01:34:43.326Z,55.31
2018-10-16T01:37:11.323Z,55.06
2018-10-16T01:39:38.637Z,54.83
2018-10-16T01:42:05.957Z,55.40
2018-10-16T01:44:33.183Z,55.11
2018-10-16T01:47:00.501Z,55.37
2018-10-16T01:49:27.758Z,55.61
2018-10-16T01:51:55.193Z,54.91
2018-10-16T01:54:22.471Z,54.94
2018-10-16T01:56:49.761Z,54.68
2018-10-16T01:59:17.028Z,55.27
2018-10-16T02:01:44.279Z,55.12
2018-10-16T02:04:15.135Z,55.05
2018-10-16T02:06:42.429Z,54.99
2018-10-16T02:09:11.017Z,55.37
2018-10-16T02:11:38.392Z,55.94
2018-10-16T02:14:05.933Z,55.75
2018-10-16T02:16:33.331Z,55.26
2018-10-16T02:19:00.608Z,55.73
2018-10-16T02:21:28.607Z,55.68
2018-10-16T02:23:56.622Z,55.09
2018-10-16T02:26:24.397Z,56.63
2018-10-16T02:28:51.650Z,56.09
2018-10-16T02:31:19.033Z,57.22
2018-10-16T02:33:46.336Z,57.51
2018-10-16T02:36:14.109Z,56.70
2018-10-16T02:38:41.414Z,57.21
2018-10-16T02:41:08.766Z,57.40
2018-10-16T02:43:36.102Z,57.39
2018-10-16T02:46:03.469Z,57.48
2018-10-16T02:48:30.690Z,56.60
2018-10-16T02:50:58.019Z,57.14
2018-10-16T02:53:25.332Z,57.34
2018-10-16T02:55:52.740Z,57.36
2018-10-16T02:58:20.081Z,57.43
2018-10-16T03:00:47.376Z,57.27
2018-10-16T03:03:14.680Z,57.40
2018-10-16T03:05:42.119Z,57.17
2018-10-16T03:08:09.404Z,57.23
2018-10-16T03:10:36.713Z,57.37
2018-10-16T03:13:04.023Z,57.08
2018-10-16T03:15:31.279Z,57.29
2018-10-16T03:17:58.766Z,57.22
2018-10-16T03:20:26.029Z,57.21
2018-10-16T03:22:53.402Z,56.47
2018-10-16T03:25:21.415Z,56.91
2018-10-16T03:27:48.656Z,56.97
2018-10-16T03:30:15.963Z,57.12
2018-10-16T03:32:43.216Z,57.19
2018-10-16T03:35:11.439Z,56.95
2018-10-16T03:37:46.756Z,56.93
2018-10-16T03:40:14.541Z,57.37
2018-10-16T03:42:42.589Z,57.34
2018-10-16T03:45:11.529Z,56.59
2018-10-16T03:47:39.608Z,57.16
2018-10-16T03:50:07.465Z,57.36
2018-10-16T03:52:34.811Z,57.11
2018-10-16T03:55:02.040Z,56.78
2018-10-16T03:57:29.553Z,57.17
2018-10-16T03:59:57.049Z,57.42
2018-10-16T04:02:24.354Z,56.41
2018-10-16T04:04:51.803Z,56.85
2018-10-16T04:07:19.067Z,57.10
2018-10-16T04:09:46.360Z,57.29
2018-10-16T04:12:13.624Z,56.67
2018-10-16T04:14:40.898Z,56.87
2018-10-16T04:17:08.228Z,57.07
2018-10-16T04:19:35.623Z,57.33
2018-10-16T04:22:03.056Z,57.14
2018-10-16T04:24:30.446Z,57.04
2018-10-16T04:26:57.766Z,56.70
2018-10-16T04:29:25.118Z,56.55
2018-10-16T04:31:52.550Z,57.32
2018-10-16T04:34:19.914Z,56.81
2018-10-16T04:36:47.200Z,57.48
2018-10-16T04:39:14.744Z,57.66
2018-10-16T04:41:42.485Z,57.76
2018-10-16T04:44:10.442Z,57.64
2018-10-16T04:46:37.738Z,57.86
2018-10-16T04:49:05.336Z,57.37
2018-10-16T04:51:32.629Z,57.37
2018-10-16T04:53:59.978Z,57.29
2018-10-16T04:56:27.274Z,57.19
2018-10-16T04:58:54.660Z,57.48
2018-10-16T05:01:21.989Z,57.62
2018-10-16T05:03:49.232Z,57.95
2018-10-16T05:06:16.625Z,57.84
2018-10-16T05:08:44.129Z,57.95
2018-10-16T05:11:11.420Z,58.13
2018-10-16T05:13:38.772Z,57.50
2018-10-16T05:16:06.046Z,57.97
2018-10-16T05:18:33.419Z,57.81
2018-10-16T05:21:00.881Z,59.18
2018-10-16T05:23:28.889Z,58.04
2018-10-16T05:25:56.283Z,60.69
2018-10-16T05:28:23.560Z,58.99
2018-10-16T05:30:50.831Z,58.35
2018-10-16T05:33:18.120Z,57.67
2018-10-16T05:35:45.565Z,58.09
2018-10-16T05:38:12.854Z,58.31
2018-10-16T05:40:40.098Z,57.61
2018-10-16T05:43:07.694Z,57.63
2018-10-16T05:45:38.257Z,57.79
2018-10-16T05:48:05.536Z,58.19
2018-10-16T05:50:32.790Z,58.18
2018-10-16T05:53:00.106Z,58.46
2018-10-16T05:55:27.379Z,58.44
2018-10-16T05:57:54.864Z,58.63
2018-10-16T06:00:31.258Z,57.71
2018-10-16T06:02:58.513Z,57.81
2018-10-16T06:05:25.838Z,58.26
2018-10-16T06:07:53.045Z,58.36
2018-10-16T06:10:20.405Z,58.27
2018-10-16T06:12:47.668Z,58.42
2018-10-16T06:15:14.962Z,58.32
2018-10-16T06:17:42.231Z,58.75
2018-10-16T06:20:12.114Z,57.99
2018-10-16T06:22:39.755Z,58.32
2018-10-16T06:25:08.668Z,58.42
2018-10-16T06:27:35.921Z,59.15
2018-10-16T06:30:03.575Z,58.84
2018-10-16T06:32:30.870Z,57.96
2018-10-16T06:34:58.380Z,59.00
2018-10-16T06:37:25.754Z,58.29
2018-10-16T06:39:53.065Z,58.62
2018-10-16T06:42:20.403Z,58.19
2018-10-16T06:44:47.743Z,57.57
2018-10-16T06:47:15.104Z,57.89
2018-10-16T06:49:42.495Z,57.94
2018-10-16T06:52:09.874Z,58.20
2018-10-16T06:54:37.187Z,57.58
2018-10-16T06:57:04.969Z,57.54
2018-10-16T06:59:32.894Z,58.08
2018-10-16T07:02:00.194Z,57.51
2018-10-16T07:04:27.458Z,58.20
2018-10-16T07:06:54.831Z,57.64
2018-10-16T07:09:22.042Z,58.23
2018-10-16T07:11:49.460Z,57.47
2018-10-16T07:14:16.780Z,58.35
2018-10-16T07:16:44.628Z,58.19
2018-10-16T07:19:12.912Z,58.61
2018-10-16T07:21:40.870Z,58.39
2018-10-16T07:24:08.640Z,59.75
2018-10-16T07:26:35.909Z,59.62
2018-10-16T07:29:03.349Z,58.29
2018-10-16T07:31:30.629Z,57.84
2018-10-16T07:33:58.233Z,57.67
2018-10-16T07:36:25.473Z,57.34
2018-10-16T07:38:52.862Z,56.83
2018-10-16T07:41:20.393Z,57.58
2018-10-16T07:43:47.795Z,58.30
2018-10-16T07:46:15.057Z,58.13
2018-10-16T07:48:42.425Z,57.87
2018-10-16T07:51:09.611Z,58.01
2018-10-16T07:53:36.884Z,56.64
2018-10-16T07:56:04.461Z,56.45
2018-10-16T07:58:32.305Z,56.05
2018-10-16T08:01:00.402Z,55.98
2018-10-16T08:03:27.775Z,55.33
2018-10-16T08:05:55.043Z,55.58
2018-10-16T08:08:22.299Z,54.21
2018-10-16T08:10:49.627Z,54.25
2018-10-16T08:13:16.881Z,54.02
2018-10-16T08:15:44.135Z,54.04
2018-10-16T08:18:11.555Z,53.99
2018-10-16T08:20:38.835Z,53.55
2018-10-16T08:23:06.145Z,54.28
2018-10-16T08:25:33.387Z,53.24
2018-10-16T08:28:01.372Z,53.33
2018-10-16T08:30:29.413Z,53.43
2018-10-16T08:32:56.881Z,52.84
2018-10-16T08:35:24.299Z,52.63
2018-10-16T08:40:11.428Z,53.36
2018-10-16T08:42:57.562Z,52.68
2018-10-16T08:45:36.460Z,52.84
2018-10-16T08:48:15.240Z,52.08
2018-10-16T08:50:54.234Z,51.86
2018-10-16T08:53:21.550Z,51.64
2018-10-16T08:55:48.913Z,51.53
2018-10-16T08:58:16.314Z,52.53
2018-10-16T09:00:43.734Z,52.67
2018-10-16T09:03:11.070Z,52.12
2018-10-16T09:05:38.352Z,52.76
2018-10-16T09:08:05.688Z,52.00
2018-10-16T09:10:33.058Z,52.38
2018-10-16T09:13:00.319Z,52.19
2018-10-16T09:15:27.636Z,51.61
2018-10-16T09:17:54.984Z,51.89
2018-10-16T09:20:22.419Z,52.37
2018-10-16T09:22:49.652Z,51.29
2018-10-16T09:25:17.132Z,52.05
2018-10-16T09:27:44.519Z,51.61
2018-10-16T09:30:13.011Z,51.40
2018-10-16T09:32:40.630Z,51.60
2018-10-16T09:35:09.655Z,51.53
2018-10-16T09:37:37.539Z,51.13
2018-10-16T09:40:05.979Z,51.41
2018-10-16T09:42:33.465Z,51.50
2018-10-16T09:45:00.801Z,51.23
2018-10-16T09:47:28.205Z,51.07
2018-10-16T09:49:55.618Z,51.47
2018-10-16T09:52:23.063Z,50.90
2018-10-16T09:54:50.423Z,50.56
2018-10-16T09:57:17.742Z,51.57
2018-10-16T09:59:45.038Z,51.74
2018-10-16T10:02:12.963Z,51.46
2018-10-16T10:04:40.317Z,51.51
2018-10-16T10:07:07.620Z,51.01
2018-10-16T10:09:34.934Z,50.93
2018-10-16T10:12:02.437Z,51.56
2018-10-16T10:14:29.798Z,50.60
2018-10-16T10:16:57.110Z,50.57
2018-10-16T10:19:24.422Z,50.49
2018-10-16T10:21:52.002Z,50.07
2018-10-16T10:24:19.287Z,48.90
2018-10-16T10:26:46.576Z,48.91
2018-10-16T10:29:13.959Z,49.08
2018-10-16T10:31:41.196Z,49.42
2018-10-16T10:34:08.514Z,48.76
2018-10-16T10:36:35.792Z,48.80
2018-10-16T10:39:04.568Z,47.87
2018-10-16T10:41:32.560Z,47.40
2018-10-16T10:43:59.820Z,47.21
2018-10-16T10:46:27.787Z,46.59
2018-10-16T10:48:55.241Z,46.55
2018-10-16T10:51:22.944Z,46.01
2018-10-16T10:53:49.976Z,45.81
2018-10-16T10:56:17.288Z,45.65
2018-10-16T10:58:44.546Z,44.66
2018-10-16T11:01:11.840Z,44.92
2018-10-16T11:03:39.353Z,44.53
2018-10-16T11:06:06.571Z,43.78
2018-10-16T11:08:34.631Z,43.74
2018-10-16T11:11:02.583Z,42.85
2018-10-16T11:13:30.525Z,43.16
2018-10-16T11:15:57.899Z,43.34
2018-10-16T11:18:25.154Z,42.09
2018-10-16T11:20:52.484Z,42.42
2018-10-16T11:23:19.731Z,41.43
2018-10-16T11:25:47.085Z,41.50
2018-10-16T11:28:14.388Z,40.72
2018-10-16T11:30:41.799Z,42.01
2018-10-16T11:33:09.302Z,41.03
2018-10-16T11:35:36.546Z,41.06
2018-10-16T11:38:04.159Z,40.71
2018-10-16T11:40:31.424Z,41.41
2018-10-16T11:42:58.901Z,41.17
2018-10-16T11:45:26.259Z,40.77
2018-10-16T11:47:53.540Z,40.24
2018-10-16T11:50:20.866Z,39.59
2018-10-16T11:52:48.202Z,38.52
2018-10-16T11:55:15.498Z,38.67
2018-10-16T11:57:42.758Z,39.65
2018-10-16T12:00:12.856Z,39.59
2018-10-16T12:02:40.953Z,39.69
2018-10-16T12:05:08.199Z,38.29
2018-10-16T12:07:35.504Z,37.80
2018-10-16T12:10:02.884Z,37.66
2018-10-16T12:12:30.214Z,37.51
2018-10-16T12:14:57.492Z,36.15
2018-10-16T12:17:30.498Z,36.66
2018-10-16T12:20:01.640Z,36.48
2018-10-16T12:22:29.084Z,36.07
2018-10-16T12:24:56.493Z,35.65
2018-10-16T12:27:23.761Z,35.37
2018-10-16T12:29:51.059Z,36.23
2018-10-16T12:32:18.409Z,36.83
2018-10-16T12:34:45.634Z,35.01
2018-10-16T12:37:12.921Z,34.87
2018-10-16T12:39:40.319Z,35.62
2018-10-16T12:42:07.773Z,36.43
2018-10-16T12:44:35.051Z,36.43
2018-10-16T12:47:02.360Z,35.84
2018-10-16T12:49:29.941Z,35.80
2018-10-16T12:51:57.312Z,35.42
2018-10-16T12:54:24.703Z,36.33
2018-10-16T12:56:52.796Z,36.57
2018-10-16T12:59:20.142Z,36.98
2018-10-16T13:01:47.552Z,36.72
2018-10-16T13:04:14.806Z,36.43
2018-10-16T13:06:42.508Z,36.82
2018-10-16T13:09:11.257Z,35.82
2018-10-16T13:11:39.576Z,35.38
2018-10-16T13:14:07.187Z,35.35
2018-10-16T13:16:34.581Z,36.17
2018-10-16T13:19:01.835Z,35.75
2018-10-16T13:21:29.897Z,35.38
2018-10-16T13:23:57.260Z,37.26
2018-10-16T13:26:24.613Z,35.64
2018-10-16T13:28:51.980Z,33.69
2018-10-16T13:31:19.295Z,34.92
2018-10-16T13:33:46.724Z,34.51
2018-10-16T13:36:13.978Z,34.44
2018-10-16T13:38:41.382Z,35.46
2018-10-16T13:41:08.765Z,35.16
2018-10-16T13:43:37.042Z,34.80
2018-10-16T13:46:05.035Z,35.14
2018-10-16T13:48:32.980Z,35.18
2018-10-16T13:51:00.391Z,35.48
2018-10-16T13:53:27.714Z,34.86
2018-10-16T13:55:55.122Z,36.25
2018-10-16T13:58:22.422Z,34.85
2018-10-16T14:00:49.852Z,35.66
2018-10-16T14:03:17.333Z,36.47
2018-10-16T14:05:44.716Z,36.14
2018-10-16T14:08:12.080Z,35.31
2018-10-16T14:10:39.363Z,35.50
2018-10-16T14:13:06.691Z,35.85
2018-10-16T14:15:34.609Z,36.29
2018-10-16T14:18:02.555Z,36.29
2018-10-16T14:20:29.881Z,36.28
2018-10-16T14:22:57.263Z,35.87
2018-10-16T14:25:24.655Z,35.45
2018-10-16T14:27:52.055Z,35.45
2018-10-16T14:30:19.396Z,34.66
2018-10-16T14:32:46.679Z,35.16
2018-10-16T14:35:14.459Z,34.66
2018-10-16T14:37:41.758Z,35.63
2018-10-16T14:40:11.601Z,35.59
2018-10-16T14:42:39.278Z,36.91
2018-10-16T14:45:08.091Z,36.26
2018-10-16T14:47:36.047Z,37.10
2018-10-16T14:50:03.940Z,37.34
2018-10-16T14:52:31.186Z,37.29
2018-10-16T14:54:58.434Z,36.61
2018-10-16T14:57:25.882Z,37.60
2018-10-16T14:59:53.344Z,36.94
2018-10-16T15:02:20.667Z,37.73
2018-10-16T15:04:48.017Z,38.72
2018-10-16T15:07:15.362Z,38.98
2018-10-16T15:09:42.692Z,39.07
2018-10-16T15:12:09.981Z,39.06
2018-10-16T15:14:37.328Z,38.46
2018-10-16T15:17:05.769Z,39.54
2018-10-16T15:19:33.180Z,38.79
2018-10-16T15:22:00.532Z,38.86
2018-10-16T15:24:28.540Z,39.46
2018-10-16T15:26:55.868Z,39.20
2018-10-16T15:29:23.196Z,39.65
2018-10-16T15:31:50.678Z,40.14
2018-10-16T15:34:18.120Z,40.02
2018-10-16T15:36:45.393Z,40.65
2018-10-16T15:39:13.177Z,40.34
2018-10-16T15:41:40.425Z,40.71
2018-10-16T15:44:08.568Z,41.72
2018-10-16T15:46:36.424Z,41.54
2018-10-16T15:49:04.042Z,41.88
2018-10-16T15:51:31.459Z,41.96
2018-10-16T15:53:58.779Z,41.65
2018-10-16T15:56:26.084Z,42.49
2018-10-16T15:58:53.475Z,42.26
2018-10-16T16:01:20.747Z,42.52
2018-10-16T16:03:48.055Z,42.90
2018-10-16T16:06:15.331Z,42.86
2018-10-16T16:08:42.648Z,43.09
2018-10-16T16:11:10.064Z,43.33
2018-10-16T16:13:37.472Z,43.17
2018-10-16T16:16:04.792Z,43.86
2018-10-16T16:18:32.119Z,44.57
2018-10-16T16:20:59.973Z,44.55
2018-10-16T16:23:27.307Z,44.65
2018-10-16T16:25:54.617Z,45.10
2018-10-16T16:28:22.458Z,45.36
2018-10-16T16:30:49.757Z,45.05
2018-10-16T16:33:17.019Z,45.06
2018-10-16T16:35:44.343Z,45.28
2018-10-16T16:38:12.153Z,45.11
2018-10-16T16:40:39.447Z,45.82
2018-10-16T16:43:06.823Z,46.58
2018-10-16T16:45:34.147Z,46.74
2018-10-16T16:48:01.509Z,47.04
2018-10-16T16:50:28.903Z,47.85
2018-10-16T16:52:56.822Z,48.09
2018-10-16T16:55:24.351Z,48.75
2018-10-16T16:57:51.786Z,48.27
2018-10-16T17:00:19.161Z,48.87
2018-10-16T17:02:47.071Z,48.77
2018-10-16T17:05:14.887Z,48.96
2018-10-16T17:07:42.836Z,48.81
2018-10-16T17:10:10.215Z,49.62
2018-10-16T17:12:38.379Z,49.34
2018-10-16T17:15:07.875Z,50.38
2018-10-16T17:17:35.220Z,50.35
2018-10-16T17:20:03.097Z,49.58
2018-10-16T17:22:30.379Z,49.95
2018-10-16T17:24:57.789Z,49.89
2018-10-16T17:27:25.091Z,50.81
2018-10-16T17:29:52.495Z,50.72
2018-10-16T17:32:19.748Z,51.21
2018-10-16T17:34:47.076Z,51.04
2018-10-16T17:37:14.469Z,50.45
2018-10-16T17:39:41.838Z,50.80
2018-10-16T17:42:09.258Z,51.03
2018-10-16T17:44:36.768Z,51.54
2018-10-16T17:47:04.382Z,52.18
2018-10-16T17:49:31.640Z,51.52
2018-10-16T17:51:58.980Z,51.43
2018-10-16T17:54:26.358Z,52.21
2018-10-16T17:56:53.814Z,52.29
2018-10-16T17:59:21.064Z,51.65
2018-10-16T18:01:48.500Z,51.77
2018-10-16T18:04:16.756Z,51.86
2018-10-16T18:06:44.072Z,52.00
2018-10-16T18:09:12.215Z,52.42
2018-10-16T18:11:39.509Z,52.78
2018-10-16T18:14:07.616Z,52.50
2018-10-16T18:16:34.962Z,52.61
2018-10-16T18:19:02.395Z,53.33
2018-10-16T18:21:30.424Z,52.21
2018-10-16T18:23:57.889Z,53.40
2018-10-16T18:26:25.395Z,53.24
2018-10-16T18:28:52.812Z,53.45
2018-10-16T18:31:20.252Z,53.17
2018-10-16T18:33:47.517Z,53.78
2018-10-16T18:36:14.845Z,53.30
2018-10-16T18:38:42.095Z,54.21
2018-10-16T18:41:15.635Z,54.26
2018-10-16T18:43:43.048Z,54.52
2018-10-16T18:46:10.385Z,53.76
2018-10-16T18:48:37.742Z,54.51
2018-10-16T18:51:05.220Z,54.56
2018-10-16T18:53:32.735Z,54.90
2018-10-16T18:56:00.023Z,55.05
2018-10-16T18:58:27.509Z,54.16
2018-10-16T19:00:54.906Z,54.50
2018-10-16T19:03:22.279Z,54.97
2018-10-16T19:05:49.780Z,54.33
2018-10-16T19:08:17.037Z,54.60
2018-10-16T19:10:44.404Z,54.31
2018-10-16T19:13:11.741Z,54.95
2018-10-16T19:15:39.037Z,54.85
2018-10-16T19:18:06.380Z,55.80
2018-10-16T19:20:34.859Z,56.00
2018-10-16T19:23:02.765Z,55.62
2018-10-16T19:25:30.123Z,56.00
2018-10-16T19:27:57.438Z,56.29
2018-10-16T19:30:24.723Z,56.42
2018-10-16T19:32:51.978Z,55.95
2018-10-16T19:35:19.303Z,55.94
2018-10-16T19:37:46.649Z,55.83
2018-10-16T19:40:14.077Z,56.24
2018-10-16T19:42:41.466Z,56.63
2018-10-16T19:45:09.696Z,56.72
2018-10-16T19:47:37.914Z,55.92
2018-10-16T19:50:06.078Z,56.46
2018-10-16T19:52:33.476Z,56.15
2018-10-16T19:55:00.888Z,56.16
2018-10-16T19:57:28.196Z,55.39
2018-10-16T19:59:55.723Z,56.68
2018-10-16T20:02:22.973Z,56.46
2018-10-16T20:04:50.389Z,56.05
2018-10-16T20:07:17.945Z,55.56
2018-10-16T20:09:45.189Z,56.52
2018-10-16T20:12:12.674Z,56.51
2018-10-16T20:14:40.746Z,56.16
2018-10-16T20:17:08.747Z,56.34
2018-10-16T20:19:36.179Z,55.78
2018-10-16T20:22:03.565Z,55.81
2018-10-16T20:24:30.895Z,56.47
2018-10-16T20:26:58.349Z,55.96
2018-10-16T20:29:25.749Z,55.96
2018-10-16T20:31:53.123Z,55.92
2018-10-16T20:34:20.431Z,56.32
2018-10-16T20:36:47.781Z,56.07
2018-10-16T20:39:15.052Z,56.33
2018-10-16T20:41:42.429Z,55.61
2018-10-16T20:44:10.436Z,55.64
2018-10-16T20:46:37.773Z,55.82
2018-10-16T20:49:05.927Z,56.60
2018-10-16T20:51:33.544Z,55.90
2018-10-16T20:54:01.417Z,56.15
2018-10-16T20:56:28.786Z,56.50
2018-10-16T20:58:56.752Z,55.50
2018-10-16T21:01:24.171Z,56.60
2018-10-16T21:03:51.658Z,56.38
2018-10-16T21:06:19.289Z,55.86
2018-10-16T21:08:46.464Z,55.91
2018-10-16T21:11:14.162Z,57.04
2018-10-16T21:13:42.210Z,56.63
2018-10-16T21:16:09.552Z,57.10
2018-10-16T21:18:37.011Z,56.71
2018-10-16T21:21:05.064Z,56.72
2018-10-16T21:23:32.414Z,57.36
2018-10-16T21:25:59.830Z,56.73
2018-10-16T21:28:27.290Z,56.92
2018-10-16T21:30:54.716Z,57.17
2018-10-16T21:33:22.138Z,57.55
2018-10-16T21:35:49.410Z,57.23
2018-10-16T21:38:16.802Z,57.71
2018-10-16T21:40:44.047Z,57.85
2018-10-16T21:43:11.495Z,57.40
2018-10-16T21:45:38.818Z,57.55
2018-10-16T21:48:06.084Z,57.08
2018-10-16T21:50:33.417Z,56.36
2018-10-16T21:53:00.737Z,56.61
2018-10-16T21:55:28.037Z,56.87
2018-10-16T21:57:55.502Z,56.28
2018-10-16T22:00:28.468Z,56.60
2018-10-16T22:02:57.110Z,57.04
2018-10-16T22:05:25.097Z,56.24
2018-10-16T22:07:53.965Z,56.33
2018-10-16T22:10:21.775Z,56.75
2018-10-16T22:12:49.272Z,56.93
2018-10-16T22:15:18.231Z,56.08
2018-10-16T22:17:45.575Z,56.49
2018-10-16T22:20:13.409Z,56.49
2018-10-16T22:22:41.009Z,55.96
2018-10-16T22:25:08.488Z,56.53
2018-10-16T22:27:35.737Z,56.59
2018-10-16T22:30:03.099Z,56.79
2018-10-16T22:32:30.986Z,56.84
2018-10-16T22:34:58.364Z,56.75
2018-10-16T22:37:25.645Z,57.04
2018-10-16T22:39:53.609Z,56.78
2018-10-16T22:42:20.855Z,56.65
2018-10-16T22:44:48.713Z,56.59
2018-10-16T22:47:16.062Z,56.31
2018-10-16T22:49:43.442Z,56.37
2018-10-16T22:52:10.740Z,57.25
2018-10-16T22:54:38.171Z,56.84
2018-10-16T22:57:06.090Z,56.71
2018-10-16T22:59:33.329Z,57.89
2018-10-16T23:02:00.637Z,56.21
2018-10-16T23:04:28.020Z,56.97
2018-10-16T23:06:55.461Z,57.26
2018-10-16T23:09:22.704Z,56.08
2018-10-16T23:11:50.667Z,57.00
2018-10-16T23:14:17.980Z,57.08
2018-10-16T23:16:45.268Z,56.45
2018-10-16T23:19:12.571Z,56.85
2018-10-16T23:21:39.776Z,56.87
2018-10-16T23:24:07.108Z,57.14
2018-10-16T23:26:35.391Z,56.37
2018-10-16T23:29:02.791Z,56.29
2018-10-16T23:31:30.138Z,56.64
2018-10-16T23:33:57.455Z,56.86
2018-10-16T23:36:25.379Z,56.35
2018-10-16T23:38:52.636Z,57.19
2018-10-16T23:41:19.899Z,57.12
2018-10-16T23:43:47.198Z,57.03
2018-10-16T23:46:14.477Z,56.68
2018-10-16T23:48:41.819Z,56.49
2018-10-16T23:51:09.153Z,57.51
2018-10-16T23:53:36.584Z,57.52
2018-10-16T23:56:03.918Z,57.41
2018-10-16T23:58:31.713Z,57.54
